createdAt,value
2023-03-24T00:01:53.519Z,10.69
2023-03-24T00:04:20.443Z,10.73
2023-03-24T00:06:49.395Z,10.74
2023-03-24T00:09:16.827Z,10.74
2023-03-24T00:11:44.225Z,10.65
2023-03-24T00:14:12.736Z,10.51
2023-03-24T00:16:42.863Z,10.45
2023-03-24T00:19:11.526Z,10.46
2023-03-24T00:21:38.205Z,10.47
2023-03-24T00:24:07.632Z,10.45
2023-03-24T00:26:37.590Z,10.45
2023-03-24T00:29:07.109Z,10.45
2023-03-24T00:31:34.249Z,10.45
2023-03-24T00:34:02.860Z,10.41
2023-03-24T00:36:29.650Z,10.35
2023-03-24T00:38:58.029Z,10.38
2023-03-24T00:41:27.064Z,10.33
2023-03-24T00:43:59.511Z,10.27
2023-03-24T00:46:28.483Z,10.17
2023-03-24T00:49:02.371Z,10.15
2023-03-24T00:51:31.685Z,10.15
2023-03-24T00:53:59.368Z,10.12
2023-03-24T00:56:27.532Z,10.15
2023-03-24T00:58:57.766Z,10.09
2023-03-24T01:01:30.249Z,9.89
2023-03-24T01:03:57.013Z,9.92
2023-03-24T01:06:24.593Z,10.01
2023-03-24T01:08:53.882Z,10.00
2023-03-24T01:11:24.325Z,9.99
2023-03-24T01:13:52.446Z,10.06
2023-03-24T01:16:19.660Z,10.11
2023-03-24T01:18:46.347Z,10.10
2023-03-24T01:21:13.276Z,10.10
2023-03-24T01:23:42.031Z,10.03
2023-03-24T01:26:11.028Z,10.08
2023-03-24T01:28:41.078Z,10.08
2023-03-24T01:31:09.950Z,10.09
2023-03-24T01:33:38.052Z,10.01
2023-03-24T01:36:06.740Z,10.00
2023-03-24T01:38:33.957Z,9.99
2023-03-24T01:41:05.723Z,9.88
2023-03-24T01:43:34.708Z,9.96
2023-03-24T01:46:05.643Z,9.96
2023-03-24T01:48:52.445Z,9.97
2023-03-24T01:51:23.581Z,10.00
2023-03-24T01:53:55.981Z,9.97
2023-03-24T01:56:24.271Z,9.96
2023-03-24T01:58:56.603Z,9.97
2023-03-24T02:01:26.506Z,9.96
2023-03-24T02:03:53.281Z,9.93
2023-03-24T02:06:23.348Z,9.93
2023-03-24T02:08:55.985Z,9.90
2023-03-24T02:11:25.222Z,9.90
2023-03-24T02:13:51.923Z,9.90
2023-03-24T02:16:33.888Z,9.88
2023-03-24T02:19:38.225Z,9.81
2023-03-24T02:22:36.645Z,9.81
2023-03-24T02:25:03.264Z,9.81
2023-03-24T02:27:44.341Z,9.80
2023-03-24T02:30:41.697Z,9.82
2023-03-24T02:33:23.372Z,9.78
2023-03-24T02:35:50.109Z,9.80
2023-03-24T02:38:47.283Z,9.77
2023-03-24T02:41:33.383Z,9.83
2023-03-24T02:44:25.907Z,9.83
2023-03-24T02:47:01.513Z,9.80
2023-03-24T02:49:32.149Z,9.70
2023-03-24T02:52:08.017Z,9.65
2023-03-24T02:54:48.882Z,9.65
2023-03-24T02:57:25.509Z,9.67
2023-03-24T03:00:10.198Z,9.58
2023-03-24T03:02:45.454Z,9.56
2023-03-24T03:05:20.363Z,9.50
2023-03-24T03:07:49.049Z,9.57
2023-03-24T03:10:22.788Z,9.55
2023-03-24T03:12:55.345Z,9.55
2023-03-24T03:15:27.797Z,9.60
2023-03-24T03:18:03.676Z,9.56
2023-03-24T03:20:38.231Z,9.46
2023-03-24T03:23:10.331Z,9.44
2023-03-24T03:25:46.349Z,9.42
2023-03-24T03:28:18.060Z,9.44
2023-03-24T03:30:51.071Z,9.42
2023-03-24T03:33:26.135Z,9.33
2023-03-24T03:36:14.304Z,9.31
2023-03-24T03:39:09.651Z,9.37
2023-03-24T03:41:38.319Z,9.33
2023-03-24T03:44:05.414Z,9.35
2023-03-24T03:46:32.324Z,9.35
2023-03-24T03:48:58.983Z,9.35
2023-03-24T03:51:26.420Z,9.34
2023-03-24T03:53:58.976Z,9.35
2023-03-24T03:56:28.394Z,9.42
2023-03-24T03:58:55.111Z,9.43
2023-03-24T04:01:25.559Z,9.46
2023-03-24T04:04:11.446Z,9.47
2023-03-24T04:07:08.093Z,9.47
2023-03-24T04:09:54.740Z,9.49
2023-03-24T04:12:36.100Z,9.54
2023-03-24T04:15:28.163Z,9.62
2023-03-24T04:18:04.621Z,9.67
2023-03-24T04:20:50.787Z,9.70
2023-03-24T04:23:39.801Z,9.68
2023-03-24T04:26:26.678Z,9.70
2023-03-24T04:29:17.907Z,9.75
2023-03-24T04:31:53.890Z,9.73
2023-03-24T04:34:28.846Z,9.73
2023-03-24T04:37:04.182Z,9.74
2023-03-24T04:39:36.019Z,9.75
2023-03-24T04:42:07.941Z,9.75
2023-03-24T04:44:34.791Z,9.76
2023-03-24T04:47:03.182Z,9.64
2023-03-24T04:49:29.855Z,9.58
2023-03-24T04:51:56.686Z,9.46
2023-03-24T04:54:24.014Z,9.31
2023-03-24T04:56:53.583Z,9.31
2023-03-24T04:59:21.318Z,9.29
2023-03-24T05:01:51.876Z,9.34
2023-03-24T05:04:21.093Z,9.37
2023-03-24T05:06:49.671Z,9.41
2023-03-24T05:09:21.815Z,9.42
2023-03-24T05:11:49.009Z,9.43
2023-03-24T05:14:16.537Z,9.40
2023-03-24T05:16:43.379Z,9.41
2023-03-24T05:19:11.128Z,9.28
2023-03-24T05:21:38.212Z,9.32
2023-03-24T05:24:05.249Z,9.32
2023-03-24T05:26:33.346Z,9.30
2023-03-24T05:29:00.514Z,9.31
2023-03-24T05:31:27.629Z,9.32
2023-03-24T05:33:54.412Z,9.37
2023-03-24T05:36:21.297Z,9.31
2023-03-24T05:38:47.928Z,9.32
2023-03-24T05:41:14.636Z,9.35
2023-03-24T05:43:41.228Z,9.33
2023-03-24T05:46:08.151Z,9.34
2023-03-24T05:48:34.945Z,9.34
2023-03-24T05:51:01.913Z,9.35
2023-03-24T05:53:28.568Z,9.32
2023-03-24T05:55:55.195Z,9.35
2023-03-24T05:58:21.815Z,9.39
2023-03-24T06:00:48.697Z,9.43
2023-03-24T06:03:17.359Z,9.46
2023-03-24T06:05:46.062Z,9.45
2023-03-24T06:08:13.546Z,9.43
2023-03-24T06:10:41.115Z,9.48
2023-03-24T06:13:09.235Z,9.52
2023-03-24T06:15:39.538Z,9.56
2023-03-24T06:18:07.825Z,9.57
2023-03-24T06:20:36.188Z,9.60
2023-03-24T06:23:03.401Z,9.59
2023-03-24T06:25:30.189Z,9.64
2023-03-24T06:28:03.992Z,9.70
2023-03-24T06:30:31.004Z,9.71
2023-03-24T06:32:58.317Z,9.72
2023-03-24T06:35:25.163Z,9.76
2023-03-24T06:37:51.829Z,9.78
2023-03-24T06:40:19.660Z,9.80
2023-03-24T06:42:46.426Z,9.82
2023-03-24T06:45:13.161Z,9.85
2023-03-24T06:47:39.820Z,9.98
2023-03-24T06:50:07.260Z,9.96
2023-03-24T06:52:34.584Z,9.99
2023-03-24T06:55:01.747Z,10.01
2023-03-24T06:57:28.940Z,10.05
2023-03-24T06:59:56.238Z,10.10
2023-03-24T07:02:23.740Z,10.11
2023-03-24T07:04:50.603Z,10.18
2023-03-24T07:09:47.014Z,10.22
2023-03-24T07:12:14.867Z,10.29
2023-03-24T07:14:41.638Z,10.33
2023-03-24T07:17:08.214Z,10.38
2023-03-24T07:19:34.851Z,10.37
2023-03-24T07:22:01.519Z,10.44
2023-03-24T07:24:30.589Z,10.40
2023-03-24T07:26:58.349Z,10.38
2023-03-24T07:29:30.285Z,10.41
2023-03-24T07:32:01.000Z,10.43
2023-03-24T07:34:28.761Z,10.63
2023-03-24T07:36:56.111Z,10.60
2023-03-24T07:39:23.087Z,10.58
2023-03-24T07:41:49.794Z,10.67
2023-03-24T07:44:16.707Z,10.69
2023-03-24T07:46:43.386Z,10.82
2023-03-24T07:49:19.007Z,10.94
2023-03-24T07:51:46.666Z,10.97
2023-03-24T07:54:13.469Z,10.89
2023-03-24T07:56:40.526Z,10.88
2023-03-24T07:59:07.825Z,10.88
2023-03-24T08:01:36.956Z,10.96
2023-03-24T08:04:06.402Z,10.96
2023-03-24T08:06:33.262Z,11.01
2023-03-24T08:08:59.957Z,11.10
2023-03-24T08:11:26.615Z,11.20
2023-03-24T08:13:53.261Z,11.38
2023-03-24T08:16:19.957Z,11.39
2023-03-24T08:18:46.666Z,11.48
2023-03-24T08:21:13.292Z,11.48
2023-03-24T08:23:39.942Z,11.58
2023-03-24T08:26:07.290Z,11.68
2023-03-24T08:28:34.072Z,11.85
2023-03-24T08:31:00.818Z,11.93
2023-03-24T08:33:27.554Z,12.04
2023-03-24T08:35:57.631Z,12.10
2023-03-24T08:38:30.745Z,12.14
2023-03-24T08:41:02.038Z,12.25
2023-03-24T08:43:30.750Z,12.38
2023-03-24T08:45:58.826Z,12.51
2023-03-24T08:48:26.023Z,12.60
2023-03-24T08:50:53.048Z,12.67
2023-03-24T08:53:19.889Z,12.65
2023-03-24T08:55:47.015Z,12.80
2023-03-24T08:58:17.297Z,12.83
2023-03-24T09:00:45.316Z,12.84
2023-03-24T09:03:22.266Z,12.91
2023-03-24T09:05:50.358Z,13.05
2023-03-24T09:08:19.001Z,13.19
2023-03-24T09:10:47.035Z,13.27
2023-03-24T09:13:14.003Z,13.33
2023-03-24T09:15:46.322Z,13.44
2023-03-24T09:18:13.359Z,13.48
2023-03-24T09:20:40.011Z,13.61
2023-03-24T09:23:06.650Z,13.72
2023-03-24T09:25:33.298Z,13.86
2023-03-24T09:28:00.873Z,13.94
2023-03-24T09:30:29.255Z,14.05
2023-03-24T09:32:59.055Z,14.15
2023-03-24T09:35:27.706Z,14.24
2023-03-24T09:37:56.032Z,14.35
2023-03-24T09:40:26.459Z,14.44
2023-03-24T09:43:02.334Z,14.50
2023-03-24T09:45:33.017Z,14.54
2023-03-24T09:48:07.901Z,14.64
2023-03-24T09:50:43.216Z,14.80
2023-03-24T09:53:29.797Z,14.74
2023-03-24T09:56:03.886Z,14.77
2023-03-24T09:58:33.591Z,14.83
2023-03-24T10:01:00.513Z,14.84
2023-03-24T10:03:27.200Z,14.97
2023-03-24T10:06:01.862Z,14.94
2023-03-24T10:08:38.253Z,14.91
2023-03-24T10:11:05.062Z,14.98
2023-03-24T10:13:46.951Z,14.96
2023-03-24T10:16:34.150Z,14.97
2023-03-24T10:19:16.148Z,15.09
2023-03-24T10:21:55.004Z,15.32
2023-03-24T10:24:32.714Z,15.42
2023-03-24T10:27:15.611Z,15.47
2023-03-24T10:29:45.972Z,15.50
2023-03-24T10:32:20.804Z,15.50
2023-03-24T10:34:52.457Z,15.49
2023-03-24T10:37:19.723Z,15.46
2023-03-24T10:39:46.535Z,15.55
2023-03-24T10:42:18.320Z,15.77
2023-03-24T10:44:48.322Z,15.78
2023-03-24T10:47:23.134Z,15.93
2023-03-24T10:50:00.970Z,16.16
2023-03-24T10:52:42.142Z,16.39
2023-03-24T10:55:16.831Z,16.54
2023-03-24T10:57:48.438Z,16.74
2023-03-24T11:00:29.685Z,16.87
2023-03-24T11:03:00.130Z,16.88
2023-03-24T11:05:30.880Z,16.95
2023-03-24T11:08:12.297Z,16.92
2023-03-24T11:10:39.333Z,17.05
2023-03-24T11:13:18.937Z,17.11
2023-03-24T11:15:56.899Z,17.15
2023-03-24T11:18:23.575Z,17.17
2023-03-24T11:20:53.897Z,17.08
2023-03-24T11:23:25.161Z,17.08
2023-03-24T11:26:15.992Z,17.12
2023-03-24T11:28:52.241Z,17.23
2023-03-24T11:31:30.628Z,17.22
2023-03-24T11:34:12.643Z,17.33
2023-03-24T11:36:45.443Z,17.22
2023-03-24T11:39:17.927Z,17.31
2023-03-24T11:41:51.520Z,17.32
2023-03-24T11:44:22.495Z,17.27
2023-03-24T11:46:59.757Z,17.32
2023-03-24T11:49:30.462Z,17.30
2023-03-24T11:51:58.053Z,17.25
2023-03-24T11:54:32.443Z,17.11
2023-03-24T11:57:04.907Z,16.93
2023-03-24T11:59:40.293Z,16.98
2023-03-24T12:02:07.957Z,16.90
2023-03-24T12:04:49.730Z,16.83
2023-03-24T12:07:31.635Z,16.81
2023-03-24T12:10:18.701Z,16.77
2023-03-24T12:13:00.160Z,16.68
2023-03-24T12:15:33.355Z,16.62
2023-03-24T12:18:39.771Z,16.58
2023-03-24T12:21:22.763Z,16.46
2023-03-24T12:23:58.209Z,16.37
2023-03-24T12:26:28.340Z,16.34
2023-03-24T12:29:26.646Z,16.22
2023-03-24T12:32:08.656Z,16.08
2023-03-24T12:34:52.905Z,15.89
2023-03-24T12:37:34.853Z,15.94
2023-03-24T12:40:33.067Z,15.83
2023-03-24T12:43:10.474Z,15.73
2023-03-24T12:45:54.365Z,15.72
2023-03-24T12:48:52.184Z,15.59
2023-03-24T12:51:29.120Z,15.54
2023-03-24T12:54:19.134Z,15.41
2023-03-24T12:56:50.871Z,15.38
2023-03-24T12:59:28.952Z,15.21
2023-03-24T13:02:09.694Z,15.08
2023-03-24T13:04:43.021Z,15.01
2023-03-24T13:07:14.613Z,15.00
2023-03-24T13:09:47.083Z,14.97
2023-03-24T13:12:18.675Z,14.87
2023-03-24T13:15:13.772Z,14.87
2023-03-24T13:17:48.024Z,14.70
2023-03-24T13:20:25.398Z,14.61
2023-03-24T13:22:52.209Z,14.75
2023-03-24T13:25:35.479Z,14.68
2023-03-24T13:28:10.237Z,14.48
2023-03-24T13:30:40.802Z,14.42
2023-03-24T13:33:16.242Z,14.38
2023-03-24T13:36:06.154Z,14.35
2023-03-24T13:38:43.457Z,14.31
2023-03-24T13:41:17.841Z,14.31
2023-03-24T13:43:51.902Z,14.24
2023-03-24T13:46:19.133Z,14.23
2023-03-24T13:48:52.005Z,14.22
2023-03-24T13:51:27.488Z,14.22
2023-03-24T13:53:56.152Z,14.20
2023-03-24T13:56:25.321Z,14.18
2023-03-24T13:59:11.977Z,14.14
2023-03-24T14:01:39.971Z,14.11
2023-03-24T14:04:28.677Z,13.96
2023-03-24T14:06:57.361Z,13.96
2023-03-24T14:09:26.753Z,13.90
2023-03-24T14:12:15.920Z,13.84
2023-03-24T14:15:13.123Z,13.75
2023-03-24T14:17:44.090Z,13.75
2023-03-24T14:20:14.823Z,13.75
2023-03-24T14:22:48.411Z,13.68
2023-03-24T14:25:15.069Z,13.68
2023-03-24T14:27:44.191Z,13.66
2023-03-24T14:30:11.841Z,13.65
2023-03-24T14:32:48.891Z,13.64
2023-03-24T14:35:26.612Z,13.57
2023-03-24T14:37:57.468Z,13.59
2023-03-24T14:40:29.720Z,13.57
2023-03-24T14:43:04.919Z,13.56
2023-03-24T14:46:02.317Z,13.48
2023-03-24T14:48:33.157Z,13.49
2023-03-24T14:51:06.268Z,13.43
2023-03-24T14:53:36.674Z,13.41
2023-03-24T14:56:05.164Z,13.37
2023-03-24T14:58:39.001Z,13.31
2023-03-24T15:01:08.122Z,13.27
2023-03-24T15:03:39.952Z,13.24
2023-03-24T15:06:24.115Z,13.16
2023-03-24T15:08:52.181Z,13.13
2023-03-24T15:11:24.402Z,13.06
2023-03-24T15:13:53.420Z,13.01
2023-03-24T15:16:27.041Z,13.03
2023-03-24T15:21:29.740Z,13.11
2023-03-24T15:23:58.348Z,13.12
2023-03-24T15:26:25.508Z,13.00
2023-03-24T15:28:57.342Z,13.09
2023-03-24T15:31:25.721Z,13.12
2023-03-24T15:33:53.288Z,13.14
2023-03-24T15:36:22.986Z,13.17
2023-03-24T15:38:52.847Z,13.15
2023-03-24T15:41:22.879Z,13.12
2023-03-24T15:43:53.124Z,13.16
2023-03-24T15:46:27.945Z,13.22
2023-03-24T15:48:57.593Z,13.27
2023-03-24T15:51:46.218Z,13.30
2023-03-24T15:54:22.074Z,13.43
2023-03-24T15:57:03.966Z,13.47
2023-03-24T15:59:37.058Z,13.45
2023-03-24T16:02:10.597Z,13.40
2023-03-24T16:04:38.443Z,13.38
2023-03-24T16:07:05.196Z,13.32
2023-03-24T16:09:38.959Z,13.39
2023-03-24T16:12:10.764Z,13.40
2023-03-24T16:14:38.851Z,13.41
2023-03-24T16:17:05.836Z,13.38
2023-03-24T16:19:33.038Z,13.38
2023-03-24T16:21:59.977Z,13.30
2023-03-24T16:24:26.871Z,13.22
2023-03-24T16:26:53.517Z,13.17
2023-03-24T16:29:22.874Z,13.15
2023-03-24T16:31:55.537Z,13.10
2023-03-24T16:34:22.954Z,13.02
2023-03-24T16:36:51.843Z,13.00
2023-03-24T16:39:22.824Z,13.01
2023-03-24T16:41:49.480Z,13.00
2023-03-24T16:44:17.485Z,12.96
2023-03-24T16:46:46.868Z,12.97
2023-03-24T16:49:16.480Z,12.98
2023-03-24T16:51:44.227Z,13.00
2023-03-24T16:54:11.175Z,13.06
2023-03-24T16:56:39.247Z,13.00
2023-03-24T16:59:06.512Z,12.97
2023-03-24T17:01:43.162Z,12.97
2023-03-24T17:04:16.377Z,12.94
2023-03-24T17:06:50.837Z,12.92
2023-03-24T17:09:17.784Z,12.79
2023-03-24T17:11:46.274Z,12.77
2023-03-24T17:14:12.948Z,12.74
2023-03-24T17:16:43.712Z,12.67
2023-03-24T17:19:13.464Z,12.66
2023-03-24T17:21:47.364Z,12.71
2023-03-24T17:24:24.275Z,12.69
2023-03-24T17:26:51.264Z,12.62
2023-03-24T17:29:17.926Z,12.61
2023-03-24T17:31:44.667Z,12.58
2023-03-24T17:34:21.745Z,12.56
2023-03-24T17:36:50.684Z,12.52
2023-03-24T17:39:18.631Z,12.43
2023-03-24T17:41:45.628Z,12.40
2023-03-24T17:44:15.816Z,12.43
2023-03-24T17:46:42.644Z,12.38
2023-03-24T17:49:09.355Z,12.27
2023-03-24T17:51:36.244Z,12.24
2023-03-24T17:54:04.169Z,12.22
2023-03-24T17:56:31.159Z,12.00
2023-03-24T17:58:59.176Z,11.88
2023-03-24T18:01:29.095Z,11.86
2023-03-24T18:03:57.147Z,11.86
2023-03-24T18:06:23.981Z,11.85
2023-03-24T18:08:51.820Z,11.84
2023-03-24T18:11:18.455Z,11.85
2023-03-24T18:13:45.310Z,11.84
2023-03-24T18:16:20.703Z,11.84
2023-03-24T18:18:50.243Z,11.83
2023-03-24T18:21:17.623Z,11.77
2023-03-24T18:23:46.387Z,11.69
2023-03-24T18:26:14.614Z,11.64
2023-03-24T18:28:42.430Z,11.67
2023-03-24T18:31:12.876Z,11.69
2023-03-24T18:33:42.792Z,11.71
2023-03-24T18:36:10.441Z,11.88
2023-03-24T18:38:37.333Z,12.06
2023-03-24T18:41:07.304Z,12.25
2023-03-24T18:43:37.583Z,12.40
2023-03-24T18:46:09.309Z,12.51
2023-03-24T18:48:38.166Z,12.52
2023-03-24T18:51:05.764Z,12.64
2023-03-24T18:53:34.514Z,12.73
2023-03-24T18:56:11.067Z,12.75
2023-03-24T18:58:38.340Z,12.81
2023-03-24T19:01:09.264Z,12.79
2023-03-24T19:03:38.265Z,12.74
2023-03-24T19:06:07.137Z,12.64
2023-03-24T19:08:36.015Z,12.66
2023-03-24T19:11:03.031Z,12.59
2023-03-24T19:13:30.762Z,12.59
2023-03-24T19:15:57.416Z,12.51
2023-03-24T19:18:24.785Z,12.29
2023-03-24T19:20:56.065Z,12.21
2023-03-24T19:23:24.050Z,12.15
2023-03-24T19:25:54.822Z,12.16
2023-03-24T19:28:22.806Z,12.07
2023-03-24T19:30:49.563Z,12.00
2023-03-24T19:33:16.582Z,11.92
2023-03-24T19:35:46.505Z,11.91
2023-03-24T19:38:13.206Z,11.90
2023-03-24T19:40:42.161Z,11.83
2023-03-24T19:43:09.203Z,11.80
2023-03-24T19:45:36.386Z,11.73
2023-03-24T19:48:03.129Z,11.77
2023-03-24T19:50:29.857Z,11.76
2023-03-24T19:52:56.516Z,11.75
2023-03-24T19:55:23.248Z,11.63
2023-03-24T19:57:49.865Z,11.63
2023-03-24T20:00:16.721Z,11.59
2023-03-24T20:02:43.589Z,11.55
2023-03-24T20:05:10.679Z,11.51
2023-03-24T20:07:37.604Z,11.46
2023-03-24T20:10:04.514Z,11.44
2023-03-24T20:12:32.247Z,11.38
2023-03-24T20:14:58.934Z,11.28
2023-03-24T20:17:28.541Z,11.28
2023-03-24T20:19:56.032Z,11.20
2023-03-24T20:22:23.137Z,11.14
2023-03-24T20:24:50.250Z,11.10
2023-03-24T20:27:17.235Z,11.10
2023-03-24T20:29:45.855Z,11.06
2023-03-24T20:32:13.225Z,11.02
2023-03-24T20:34:39.967Z,10.98
2023-03-24T20:37:07.262Z,11.04
2023-03-24T20:39:34.417Z,11.02
2023-03-24T20:42:01.382Z,10.98
2023-03-24T20:44:28.514Z,11.00
2023-03-24T20:46:57.155Z,10.98
2023-03-24T20:49:25.923Z,11.00
2023-03-24T20:51:53.329Z,10.92
2023-03-24T20:54:21.190Z,10.85
2023-03-24T20:56:49.915Z,10.79
2023-03-24T20:59:17.057Z,10.88
2023-03-24T21:01:43.769Z,10.78
2023-03-24T21:04:10.514Z,10.70
2023-03-24T21:06:38.606Z,10.74
2023-03-24T21:09:05.747Z,10.66
2023-03-24T21:11:32.946Z,10.63
2023-03-24T21:14:00.218Z,10.68
2023-03-24T21:16:27.106Z,10.64
2023-03-24T21:18:55.980Z,10.69
2023-03-24T21:21:22.839Z,10.68
2023-03-24T21:23:52.723Z,10.65
2023-03-24T21:26:20.512Z,10.63
2023-03-24T21:28:47.224Z,10.60
2023-03-24T21:31:18.950Z,10.62
2023-03-24T21:33:46.115Z,10.60
2023-03-24T21:36:13.599Z,10.52
2023-03-24T21:38:40.950Z,10.64
2023-03-24T21:41:08.589Z,10.56
2023-03-24T21:43:35.945Z,10.55
2023-03-24T21:46:06.786Z,10.59
2023-03-24T21:48:34.909Z,10.48
2023-03-24T21:51:03.857Z,10.51
2023-03-24T21:53:30.688Z,10.49
2023-03-24T21:56:06.718Z,10.40
2023-03-24T21:58:34.843Z,10.44
2023-03-24T22:01:02.231Z,10.39
2023-03-24T22:03:30.376Z,10.34
2023-03-24T22:05:57.403Z,10.43
2023-03-24T22:08:26.834Z,10.45
2023-03-24T22:10:58.202Z,10.37
2023-03-24T22:13:26.475Z,10.31
2023-03-24T22:15:55.755Z,10.29
2023-03-24T22:18:25.149Z,10.40
2023-03-24T22:21:03.152Z,10.42
2023-03-24T22:23:33.279Z,10.40
2023-03-24T22:26:02.480Z,10.34
2023-03-24T22:28:29.562Z,10.34
2023-03-24T22:31:01.919Z,10.27
2023-03-24T22:33:29.272Z,10.42
2023-03-24T22:35:57.720Z,10.33
2023-03-24T22:38:25.252Z,10.31
2023-03-24T22:40:56.248Z,10.34
2023-03-24T22:43:23.607Z,10.35
2023-03-24T22:45:50.378Z,10.34
2023-03-24T22:48:17.214Z,10.26
2023-03-24T22:50:43.913Z,10.22
2023-03-24T22:53:10.903Z,10.24
2023-03-24T22:55:38.027Z,10.21
2023-03-24T22:58:05.216Z,10.24
2023-03-24T23:00:32.278Z,10.17
2023-03-24T23:02:59.044Z,10.16
2023-03-24T23:05:25.883Z,10.08
2023-03-24T23:07:52.563Z,10.12
2023-03-24T23:10:19.651Z,10.11
2023-03-24T23:12:46.339Z,10.08
2023-03-24T23:15:14.218Z,10.12
2023-03-24T23:17:43.129Z,10.07
2023-03-24T23:20:12.142Z,10.10
2023-03-24T23:22:39.057Z,10.16
2023-03-24T23:25:07.118Z,10.10
2023-03-24T23:27:37.044Z,10.07
2023-03-24T23:30:07.079Z,10.16
2023-03-24T23:32:35.637Z,10.15
2023-03-24T23:35:03.665Z,10.10
2023-03-24T23:37:32.616Z,10.09
2023-03-24T23:40:09.550Z,10.17
2023-03-24T23:42:37.284Z,10.17
2023-03-24T23:45:05.490Z,10.14
2023-03-24T23:47:33.552Z,10.11
2023-03-24T23:50:01.550Z,10.17
2023-03-24T23:52:28.744Z,10.07
2023-03-24T23:54:56.274Z,10.11
2023-03-24T23:57:22.988Z,10.19
2023-03-24T23:59:52.962Z,10.13
